Time;durP1;ratioP1;P1;durP2;ratioP2;P2;SDS_P1;SDS_P2;PMS_P1;PMS_P2;Temp;Humidity;BMP_temperature;BMP_pressure;BME280_temperature;BME280_humidity;BME280_pressure;Samples;Min_cycle;Max_cycle;Signal;HPM_P1;HPM_P2
2021/08/14 00:00:10;;;;;;;11.95;3.63;;;18.00;79.20;;;;;;5074994;28;20055;-78
2021/08/14 00:02:35;;;;;;;9.90;3.05;;;18.00;79.40;;;;;;5058319;28;20051;-78
2021/08/14 00:05:02;;;;;;;11.05;3.05;;;17.90;79.50;;;;;;5058200;28;20033;-78
2021/08/14 00:07:28;;;;;;;12.02;3.33;;;17.90;79.80;;;;;;5074792;28;20029;-78
2021/08/14 00:09:53;;;;;;;12.63;3.45;;;17.90;80.00;;;;;;5074893;28;20064;-78
2021/08/14 00:12:19;;;;;;;9.80;3.33;;;17.90;80.30;;;;;;5058118;28;20025;-78
2021/08/14 00:14:45;;;;;;;14.98;3.72;;;17.90;80.60;;;;;;5058046;28;20029;-78
2021/08/14 00:17:11;;;;;;;13.85;3.47;;;17.80;80.70;;;;;;5074836;28;20032;-78
2021/08/14 00:19:36;;;;;;;11.25;3.00;;;17.80;80.90;;;;;;5058118;28;20033;-78
2021/08/14 00:22:02;;;;;;;9.90;3.03;;;17.80;81.10;;;;;;5041416;28;20037;-78
2021/08/14 00:24:28;;;;;;;11.40;4.22;;;17.80;81.30;;;;;;5074710;28;20507;-78
2021/08/14 00:26:53;;;;;;;17.08;3.85;;;17.80;81.60;;;;;;5041260;28;20041;-78
2021/08/14 00:29:19;;;;;;;16.70;4.07;;;17.70;81.60;;;;;;5075626;28;20032;-78
2021/08/14 00:31:46;;;;;;;14.90;3.38;;;17.70;81.80;;;;;;5057681;28;20484;-78
2021/08/14 00:34:12;;;;;;;16.15;3.97;;;17.70;82.00;;;;;;5074279;28;20049;-78
2021/08/14 00:36:37;;;;;;;14.63;3.15;;;17.70;82.20;;;;;;5057674;28;20123;-78
2021/08/14 00:39:04;;;;;;;15.73;3.97;;;17.60;82.30;;;;;;5074164;28;20036;-78
2021/08/14 00:41:30;;;;;;;14.20;4.65;;;17.60;82.50;;;;;;5074250;28;20044;-78
2021/08/14 00:44:01;;;;;;;11.82;3.80;;;17.70;82.60;;;;;;5075311;28;20043;-78
2021/08/14 00:46:28;;;;;;;13.27;4.53;;;17.60;82.70;;;;;;5074098;28;20123;-78
2021/08/14 00:48:55;;;;;;;13.80;4.15;;;17.60;82.80;;;;;;5075349;28;20033;-78
2021/08/14 00:51:21;;;;;;;16.40;4.30;;;17.50;82.90;;;;;;5072882;28;20043;-78
2021/08/14 00:53:47;;;;;;;15.65;4.00;;;17.60;83.10;;;;;;5075235;28;20465;-78
2021/08/14 00:56:12;;;;;;;15.38;3.88;;;17.50;83.20;;;;;;5074055;28;20469;-78
2021/08/14 00:58:38;;;;;;;13.80;4.15;;;17.60;83.30;;;;;;5075012;28;20025;-78
2021/08/14 01:01:04;;;;;;;13.75;3.80;;;17.60;83.40;;;;;;5055636;28;20540;-78
2021/08/14 01:03:31;;;;;;;10.70;3.38;;;17.60;83.40;;;;;;5053843;28;20036;-78
2021/08/14 01:05:58;;;;;;;14.85;4.00;;;17.60;83.50;;;;;;5037064;28;20040;-78
2021/08/14 01:08:24;;;;;;;11.27;3.53;;;17.60;83.60;;;;;;5053842;28;20037;-78
2021/08/14 01:10:49;;;;;;;13.60;4.10;;;17.60;83.60;;;;;;5053734;28;20052;-78
2021/08/14 01:13:15;;;;;;;11.05;3.65;;;17.50;83.60;;;;;;5053731;28;20036;-78
2021/08/14 01:15:49;;;;;;;15.73;3.90;;;17.60;83.80;;;;;;5053792;28;20492;-78
2021/08/14 01:18:16;;;;;;;13.65;3.53;;;17.60;84.00;;;;;;5053741;28;20461;-78
2021/08/14 01:20:43;;;;;;;15.43;4.50;;;17.60;84.00;;;;;;5053456;28;20481;-78
2021/08/14 01:23:10;;;;;;;15.32;4.25;;;17.60;84.10;;;;;;5056739;28;20056;-78
2021/08/14 01:25:36;;;;;;;14.90;3.95;;;17.50;84.20;;;;;;5062028;28;20462;-78
2021/08/14 01:28:02;;;;;;;11.73;3.80;;;17.50;84.30;;;;;;5069541;28;20033;-78
2021/08/14 01:30:28;;;;;;;12.05;3.22;;;17.50;84.50;;;;;;5069918;28;20017;-78
2021/08/14 01:32:54;;;;;;;17.63;4.55;;;17.50;84.70;;;;;;5053132;28;20401;-78
2021/08/14 01:35:20;;;;;;;11.98;3.75;;;17.50;84.80;;;;;;5054425;28;20031;-78
2021/08/14 01:37:45;;;;;;;13.75;4.35;;;17.40;84.90;;;;;;5053229;28;20104;-78
2021/08/14 01:40:11;;;;;;;12.00;4.03;;;17.50;85.20;;;;;;5052929;28;20476;-78
2021/08/14 01:42:37;;;;;;;12.82;4.75;;;17.40;85.20;;;;;;5054300;28;20114;-78
2021/08/14 01:45:03;;;;;;;14.32;3.80;;;17.40;85.30;;;;;;5054273;28;20121;-78
2021/08/14 01:47:29;;;;;;;14.30;4.57;;;17.40;85.30;;;;;;5069471;28;20021;-78
2021/08/14 01:49:54;;;;;;;10.75;4.75;;;17.40;85.50;;;;;;5053059;28;20033;-77
2021/08/14 01:52:20;;;;;;;13.32;4.50;;;17.40;85.70;;;;;;5069409;28;20021;-78
2021/08/14 01:54:47;;;;;;;12.88;4.53;;;17.30;85.70;;;;;;5068754;28;20119;-78
2021/08/14 01:57:13;;;;;;;12.23;4.40;;;17.30;85.80;;;;;;5056384;28;20523;-78
2021/08/14 01:59:40;;;;;;;13.00;5.22;;;17.30;85.90;;;;;;5073835;28;20025;-78
2021/08/14 02:02:06;;;;;;;14.05;4.57;;;17.20;86.00;;;;;;5074053;28;20522;-78
2021/08/14 02:04:31;;;;;;;17.38;5.40;;;17.20;86.10;;;;;;5072464;28;20025;-77
2021/08/14 02:06:58;;;;;;;20.20;5.50;;;17.20;86.10;;;;;;5073808;28;20025;-78
2021/08/14 02:09:24;;;;;;;13.65;4.70;;;17.20;86.20;;;;;;5072653;28;20016;-78
2021/08/14 02:11:49;;;;;;;14.48;4.75;;;17.20;86.20;;;;;;5072714;28;20131;-78
2021/08/14 02:14:15;;;;;;;16.60;5.05;;;17.20;86.30;;;;;;5055981;28;20031;-78
2021/08/14 02:16:41;;;;;;;20.65;6.70;;;17.20;86.30;;;;;;5072452;28;20047;-78
2021/08/14 02:19:07;;;;;;;11.88;4.60;;;17.10;86.50;;;;;;5072500;28;20506;-78
2021/08/14 02:21:33;;;;;;;16.20;5.57;;;17.10;86.60;;;;;;5056145;28;20419;-78
2021/08/14 02:23:59;;;;;;;14.27;5.45;;;17.10;86.70;;;;;;5072386;28;20033;-78
2021/08/14 02:26:26;;;;;;;14.38;5.30;;;17.10;86.90;;;;;;5073553;28;20029;-78
2021/08/14 02:28:52;;;;;;;15.00;5.40;;;17.00;86.90;;;;;;5055698;28;20043;-78
2021/08/14 02:31:18;;;;;;;13.30;5.10;;;17.00;87.70;;;;;;5055867;28;20032;-78
2021/08/14 02:33:44;;;;;;;16.23;5.78;;;17.00;87.30;;;;;;5073460;28;20049;-78
2021/08/14 02:36:10;;;;;;;13.23;5.07;;;17.00;87.50;;;;;;5072187;28;20024;-78
2021/08/14 02:38:37;;;;;;;12.18;5.13;;;16.90;87.50;;;;;;5073789;28;20028;-78
2021/08/14 02:41:04;;;;;;;16.55;5.43;;;16.90;87.70;;;;;;5055518;28;20028;-78
2021/08/14 02:43:30;;;;;;;16.95;5.97;;;17.00;87.90;;;;;;5055612;28;20034;-78
2021/08/14 02:45:58;;;;;;;12.77;4.53;;;16.90;87.90;;;;;;5073477;28;20017;-78
2021/08/14 02:48:24;;;;;;;14.07;5.15;;;17.00;88.00;;;;;;5072197;28;20078;-77
2021/08/14 02:50:49;;;;;;;15.50;6.07;;;16.90;88.10;;;;;;5055665;28;20388;-77
2021/08/14 02:53:15;;;;;;;16.35;5.20;;;16.90;88.20;;;;;;5055616;28;20060;-77
2021/08/14 02:55:42;;;;;;;15.70;5.53;;;16.90;88.30;;;;;;5073407;28;20031;-77
2021/08/14 02:58:08;;;;;;;17.05;6.07;;;16.90;88.30;;;;;;5073545;28;20029;-77
2021/08/14 03:00:34;;;;;;;13.43;5.35;;;16.80;88.50;;;;;;5055590;28;20485;-77
2021/08/14 03:02:59;;;;;;;18.48;5.75;;;16.80;88.60;;;;;;5073215;28;20032;-77
2021/08/14 03:05:25;;;;;;;16.80;6.13;;;16.80;88.70;;;;;;5072104;28;20548;-77
2021/08/14 03:07:51;;;;;;;17.45;5.95;;;16.80;88.90;;;;;;5038581;28;20085;-77
2021/08/14 03:10:16;;;;;;;16.83;5.85;;;16.80;89.10;;;;;;5073202;28;20024;-77
2021/08/14 03:12:42;;;;;;;15.18;5.80;;;16.70;89.20;;;;;;5055246;28;20477;-77
2021/08/14 03:15:09;;;;;;;19.55;5.82;;;16.70;89.30;;;;;;5073028;28;20028;-77
2021/08/14 03:17:35;;;;;;;15.23;5.88;;;16.70;89.40;;;;;;5077202;28;20068;-77
2021/08/14 03:20:03;;;;;;;15.25;6.30;;;16.70;89.40;;;;;;5076577;28;20118;-77
2021/08/14 03:22:29;;;;;;;17.83;5.75;;;16.70;89.50;;;;;;5072312;28;20119;-77
2021/08/14 03:24:54;;;;;;;16.77;6.50;;;16.70;89.50;;;;;;5039007;28;20060;-77
2021/08/14 03:27:20;;;;;;;17.75;6.43;;;16.70;89.50;;;;;;5056452;28;20406;-77
2021/08/14 03:29:46;;;;;;;18.02;6.38;;;16.70;89.60;;;;;;5055880;28;20036;-77
2021/08/14 03:32:12;;;;;;;18.70;6.65;;;16.60;89.60;;;;;;5056719;28;20021;-77
2021/08/14 03:34:37;;;;;;;14.63;7.10;;;16.60;90.10;;;;;;5056562;28;20102;-77
2021/08/14 03:37:03;;;;;;;15.63;6.60;;;16.60;89.90;;;;;;5055200;28;20037;-77
2021/08/14 03:39:29;;;;;;;14.95;6.00;;;16.60;90.00;;;;;;5038951;28;20461;-77
2021/08/14 03:41:54;;;;;;;15.75;6.38;;;16.60;90.00;;;;;;5056469;28;20037;-77
2021/08/14 03:44:20;;;;;;;17.23;6.35;;;16.50;90.00;;;;;;5055452;28;20074;-77
2021/08/14 03:46:46;;;;;;;17.13;6.35;;;16.50;90.30;;;;;;5056460;28;20366;-77
2021/08/14 03:49:11;;;;;;;16.20;5.80;;;16.50;90.10;;;;;;5038655;28;20110;-77
2021/08/14 03:51:37;;;;;;;14.25;6.55;;;16.50;90.20;;;;;;5055036;28;20030;-77
2021/08/14 03:54:03;;;;;;;16.98;6.93;;;16.50;90.20;;;;;;5055109;28;20369;-77
2021/08/14 03:56:28;;;;;;;15.98;6.43;;;16.50;90.30;;;;;;5055010;28;20366;-77
2021/08/14 03:58:54;;;;;;;14.85;6.35;;;16.50;90.30;;;;;;5038433;28;20037;-77
2021/08/14 04:01:20;;;;;;;19.02;6.25;;;16.50;90.30;;;;;;5061704;28;20028;-77
2021/08/14 04:03:45;;;;;;;14.77;6.78;;;16.50;90.30;;;;;;5037055;28;20029;-77
2021/08/14 04:06:11;;;;;;;21.05;7.38;;;16.50;90.30;;;;;;5050220;28;20402;-77
2021/08/14 04:08:36;;;;;;;18.83;6.97;;;16.40;90.30;;;;;;5074660;28;20392;-77
2021/08/14 04:11:06;;;;;;;14.18;6.82;;;16.40;90.30;;;;;;5074869;28;20439;-77
2021/08/14 04:13:32;;;;;;;16.77;6.72;;;16.30;90.40;;;;;;5075952;28;20021;-77
2021/08/14 04:15:58;;;;;;;17.40;6.70;;;16.30;90.40;;;;;;5074381;28;20128;-77
2021/08/14 04:18:23;;;;;;;18.65;7.65;;;16.30;90.40;;;;;;5074509;28;20032;-77
2021/08/14 04:20:49;;;;;;;18.15;6.32;;;16.30;90.50;;;;;;5074715;28;20477;-77
2021/08/14 04:23:15;;;;;;;13.70;6.00;;;16.20;90.60;;;;;;5074454;28;20029;-77
2021/08/14 04:25:41;;;;;;;18.75;6.97;;;16.20;90.70;;;;;;5074268;28;20392;-77
2021/08/14 04:28:06;;;;;;;18.00;6.93;;;16.20;90.70;;;;;;5074324;28;20029;-77
2021/08/14 04:30:32;;;;;;;16.40;6.88;;;16.30;90.80;;;;;;5057730;28;20047;-77
2021/08/14 04:32:57;;;;;;;13.55;6.13;;;16.30;90.80;;;;;;5074044;28;20098;-77
2021/08/14 04:35:23;;;;;;;16.67;7.07;;;16.30;90.80;;;;;;5057547;28;20060;-77
2021/08/14 04:37:49;;;;;;;14.07;6.07;;;16.30;90.80;;;;;;5074287;28;20037;-77
2021/08/14 04:40:15;;;;;;;15.68;7.25;;;16.20;90.90;;;;;;5074201;28;20112;-77
2021/08/14 04:42:42;;;;;;;20.10;6.65;;;16.20;90.90;;;;;;5074177;28;20028;-77
2021/08/14 04:45:09;;;;;;;17.77;6.68;;;16.20;90.90;;;;;;5075462;28;20090;-77
2021/08/14 04:47:35;;;;;;;14.80;7.10;;;16.30;90.90;;;;;;5075146;28;20028;-77
2021/08/14 04:50:00;;;;;;;19.25;6.82;;;16.30;90.90;;;;;;5073955;28;20040;-77
2021/08/14 04:52:26;;;;;;;19.48;7.00;;;16.20;91.00;;;;;;5057298;28;20047;-77
2021/08/14 04:54:52;;;;;;;15.75;6.82;;;16.20;91.00;;;;;;5061380;28;20029;-77
2021/08/14 04:57:17;;;;;;;15.18;7.10;;;16.30;91.10;;;;;;5036187;28;20553;-77
2021/08/14 04:59:43;;;;;;;14.43;6.25;;;16.30;91.10;;;;;;5051931;28;20496;-77
2021/08/14 05:02:09;;;;;;;15.48;7.13;;;16.30;91.40;;;;;;5036270;28;20033;-77
2021/08/14 05:04:34;;;;;;;18.00;6.80;;;16.30;91.10;;;;;;5053771;28;20037;-77
2021/08/14 05:07:00;;;;;;;19.40;6.25;;;16.30;91.10;;;;;;5053729;28;20037;-77
2021/08/14 05:09:27;;;;;;;17.90;7.07;;;16.30;91.10;;;;;;5036052;28;20036;-77
2021/08/14 05:11:53;;;;;;;13.73;6.60;;;16.30;91.10;;;;;;5037031;28;20385;-77
2021/08/14 05:14:19;;;;;;;16.98;6.95;;;16.30;91.10;;;;;;5036763;28;20040;-77
2021/08/14 05:16:44;;;;;;;19.42;7.78;;;16.30;91.10;;;;;;5053471;28;20439;-77
2021/08/14 05:19:10;;;;;;;19.73;7.28;;;16.30;91.10;;;;;;5054470;28;20100;-77
2021/08/14 05:21:36;;;;;;;15.48;6.00;;;16.30;91.10;;;;;;5053604;28;20115;-77
2021/08/14 05:24:03;;;;;;;15.75;7.65;;;16.30;91.10;;;;;;5053389;28;20029;-77
2021/08/14 05:26:29;;;;;;;18.52;7.45;;;16.30;91.10;;;;;;5053046;28;20056;-77
2021/08/14 05:28:55;;;;;;;12.40;6.57;;;16.40;91.10;;;;;;5053206;28;20481;-77
2021/08/14 05:31:20;;;;;;;15.63;6.45;;;16.30;91.10;;;;;;5036550;28;20424;-77
2021/08/14 05:33:46;;;;;;;16.65;6.97;;;16.40;91.10;;;;;;5054182;28;20140;-77
2021/08/14 05:36:11;;;;;;;16.92;7.25;;;16.40;91.10;;;;;;5036478;28;20074;-76
2021/08/14 05:38:37;;;;;;;14.02;6.18;;;16.40;91.10;;;;;;5053470;28;20141;-77
2021/08/14 05:41:03;;;;;;;16.80;7.60;;;16.40;91.10;;;;;;5053283;28;20048;-77
2021/08/14 05:43:29;;;;;;;18.55;6.63;;;16.50;90.90;;;;;;5053030;28;20411;-77
2021/08/14 05:45:55;;;;;;;14.93;7.30;;;16.40;91.10;;;;;;5052988;28;20017;-77
2021/08/14 05:48:21;;;;;;;18.55;7.43;;;16.40;91.30;;;;;;5052911;28;20422;-77
2021/08/14 05:50:47;;;;;;;13.90;6.72;;;16.40;91.00;;;;;;5052882;28;20049;-76
2021/08/14 05:53:14;;;;;;;19.83;7.45;;;16.40;91.00;;;;;;5054021;28;20021;-76
2021/08/14 05:55:40;;;;;;;20.25;7.47;;;16.40;91.30;;;;;;5036158;28;20021;-77
2021/08/14 05:58:05;;;;;;;17.27;7.43;;;16.50;91.10;;;;;;5036206;28;20090;-77
2021/08/14 06:00:32;;;;;;;17.95;6.95;;;16.50;91.00;;;;;;5052889;28;20025;-77
2021/08/14 06:02:57;;;;;;;14.32;6.95;;;16.50;91.10;;;;;;5053690;28;20534;-77
2021/08/14 06:05:23;;;;;;;16.92;7.18;;;16.50;91.10;;;;;;5052539;28;20063;-77
2021/08/14 06:07:50;;;;;;;16.15;6.95;;;16.50;91.00;;;;;;5052688;28;20564;-77
2021/08/14 06:10:19;;;;;;;18.35;7.85;;;16.50;91.00;;;;;;5052552;28;20021;-77
2021/08/14 06:12:45;;;;;;;16.33;6.97;;;16.60;91.10;;;;;;5053748;28;20366;-77
2021/08/14 06:15:12;;;;;;;12.85;6.80;;;16.60;91.10;;;;;;5053646;28;20047;-77
2021/08/14 06:17:38;;;;;;;24.70;8.02;;;16.60;91.10;;;;;;5036279;28;20021;-77
2021/08/14 06:20:05;;;;;;;21.40;7.00;;;16.70;91.40;;;;;;5052297;28;20519;-77
2021/08/14 06:22:30;;;;;;;15.93;7.10;;;16.80;91.10;;;;;;5052503;28;20032;-77
2021/08/14 06:24:56;;;;;;;15.27;7.22;;;16.80;91.10;;;;;;5053526;28;20029;-77
2021/08/14 06:27:22;;;;;;;19.10;7.18;;;16.90;91.00;;;;;;5052185;28;20086;-77
2021/08/14 06:29:47;;;;;;;17.23;7.22;;;16.80;90.90;;;;;;5052142;28;20061;-76
2021/08/14 06:32:13;;;;;;;15.93;7.15;;;16.90;91.00;;;;;;5052221;28;20026;-77
2021/08/14 06:34:39;;;;;;;19.23;7.43;;;16.90;90.90;;;;;;5052068;28;20052;-77
2021/08/14 06:37:06;;;;;;;20.08;7.97;;;17.00;91.00;;;;;;5035510;28;20033;-77
2021/08/14 06:39:31;;;;;;;18.88;7.80;;;17.00;90.90;;;;;;5053122;28;20041;-77
2021/08/14 06:41:57;;;;;;;20.00;8.27;;;17.10;90.90;;;;;;5053248;28;20063;-77
2021/08/14 06:44:23;;;;;;;18.58;8.13;;;17.10;90.80;;;;;;5052002;28;20564;-77
2021/08/14 06:46:48;;;;;;;18.23;7.63;;;17.20;90.80;;;;;;5035346;28;20045;-77
2021/08/14 06:49:14;;;;;;;21.50;8.18;;;17.20;90.70;;;;;;5035345;28;20036;-77
2021/08/14 06:51:40;;;;;;;24.27;7.60;;;17.10;90.70;;;;;;5053191;28;20481;-77
2021/08/14 06:54:06;;;;;;;13.35;7.00;;;17.20;90.70;;;;;;5053181;28;20033;-77
2021/08/14 06:56:32;;;;;;;17.83;7.90;;;17.20;90.70;;;;;;5053176;28;20118;-77
2021/08/14 06:58:57;;;;;;;17.80;7.65;;;17.20;90.70;;;;;;5035141;28;20068;-77
2021/08/14 07:01:23;;;;;;;16.58;6.82;;;17.20;90.70;;;;;;5035333;28;20036;-77
2021/08/14 07:03:49;;;;;;;16.08;6.95;;;17.30;90.70;;;;;;5051860;28;20032;-76
2021/08/14 07:06:22;;;;;;;19.35;7.60;;;17.30;90.60;;;;;;5052229;28;20037;-76
2021/08/14 07:08:48;;;;;;;19.52;6.93;;;17.30;90.60;;;;;;5053004;28;20129;-77
2021/08/14 07:11:19;;;;;;;17.20;8.30;;;17.30;90.60;;;;;;5051818;28;20492;-76
2021/08/14 07:13:46;;;;;;;15.68;7.35;;;17.30;90.60;;;;;;5052832;28;20116;-76
2021/08/14 07:16:12;;;;;;;15.60;7.63;;;17.30;90.70;;;;;;5052791;28;20478;-78
2021/08/14 07:18:38;;;;;;;16.02;6.78;;;17.30;90.70;;;;;;5051673;28;20029;-77
2021/08/14 07:21:04;;;;;;;22.10;7.68;;;17.20;90.70;;;;;;5051647;28;20119;-77
2021/08/14 07:23:30;;;;;;;18.27;7.53;;;17.30;90.80;;;;;;5051568;28;20025;-77
2021/08/14 07:25:56;;;;;;;21.70;8.18;;;17.40;90.80;;;;;;5052758;28;20025;-77
2021/08/14 07:28:21;;;;;;;20.98;8.00;;;17.40;90.70;;;;;;5051380;28;20060;-77
2021/08/14 07:30:48;;;;;;;18.42;8.00;;;17.50;90.80;;;;;;5051541;28;20021;-76
2021/08/14 07:33:14;;;;;;;17.30;7.22;;;17.50;90.80;;;;;;5051311;28;20075;-77
2021/08/14 07:35:40;;;;;;;21.88;7.68;;;17.60;90.70;;;;;;5052781;28;20033;-77
2021/08/14 07:38:06;;;;;;;18.33;7.72;;;17.60;90.70;;;;;;5052722;28;20043;-77
2021/08/14 07:40:32;;;;;;;19.67;8.30;;;17.70;90.80;;;;;;5052644;28;20465;-77
2021/08/14 07:42:58;;;;;;;17.48;8.27;;;17.70;90.70;;;;;;5034709;28;20032;-77
2021/08/14 07:45:24;;;;;;;15.68;7.22;;;17.80;90.80;;;;;;5051424;28;20374;-76
2021/08/14 07:47:51;;;;;;;19.63;7.88;;;17.80;90.80;;;;;;5051414;28;20055;-77
2021/08/14 07:50:25;;;;;;;17.73;7.68;;;17.90;90.80;;;;;;5051386;28;20025;-76
2021/08/14 07:52:51;;;;;;;;;;;17.90;90.90;;;;;;5052995;28;20025;-77
2021/08/14 07:55:17;;;;;;;21.00;7.47;;;17.90;90.80;;;;;;5051300;28;19909;-77
2021/08/14 07:57:43;;;;;;;19.70;7.72;;;18.00;90.80;;;;;;5034731;28;20475;-76
2021/08/14 08:00:11;;;;;;;19.48;7.70;;;18.00;90.80;;;;;;5034705;28;20112;-77
2021/08/14 08:02:37;;;;;;;19.73;7.72;;;18.10;90.80;;;;;;5054455;28;20025;-77
2021/08/14 08:05:04;;;;;;;20.13;8.60;;;18.10;90.80;;;;;;5055760;28;20040;-76
2021/08/14 08:07:31;;;;;;;18.60;7.65;;;18.20;90.80;;;;;;5056156;28;20388;-77
2021/08/14 08:09:56;;;;;;;19.67;7.57;;;18.20;90.80;;;;;;5054806;28;20044;-77
2021/08/14 08:12:22;;;;;;;20.50;7.90;;;18.30;90.80;;;;;;5038241;28;20481;-77
2021/08/14 08:14:47;;;;;;;16.55;7.78;;;18.40;90.70;;;;;;5037931;28;20372;-78
2021/08/14 08:17:13;;;;;;;19.80;7.40;;;18.40;90.70;;;;;;5038416;28;20040;-77
2021/08/14 08:19:39;;;;;;;19.98;7.82;;;18.50;90.60;;;;;;5037973;28;20025;-77
2021/08/14 08:22:04;;;;;;;17.60;7.40;;;18.50;90.60;;;;;;5055808;28;20083;-77
2021/08/14 08:24:30;;;;;;;21.60;8.52;;;18.60;90.60;;;;;;5055793;28;20053;-77
2021/08/14 08:26:56;;;;;;;18.50;7.80;;;18.60;90.50;;;;;;5037735;28;20032;-78
2021/08/14 08:29:22;;;;;;;20.15;8.02;;;18.70;90.50;;;;;;5055673;28;20029;-78
2021/08/14 08:31:47;;;;;;;19.95;7.35;;;18.80;90.50;;;;;;5054330;28;20492;-77
2021/08/14 08:34:13;;;;;;;21.38;7.93;;;18.80;90.40;;;;;;5054175;28;20053;-78
2021/08/14 08:36:40;;;;;;;21.27;9.57;;;18.90;90.30;;;;;;5054464;28;20076;-78
2021/08/14 08:39:05;;;;;;;19.10;7.50;;;18.90;90.20;;;;;;5037508;28;20072;-78
2021/08/14 08:41:31;;;;;;;21.20;8.07;;;19.00;90.20;;;;;;5037566;28;20036;-78
2021/08/14 08:43:58;;;;;;;18.30;8.43;;;19.00;90.10;;;;;;5054111;28;20021;-77
2021/08/14 08:46:26;;;;;;;25.27;8.73;;;19.10;90.10;;;;;;5054081;28;20032;-77
2021/08/14 08:48:52;;;;;;;16.45;8.02;;;19.10;90.10;;;;;;5055362;28;20029;-78
2021/08/14 08:51:23;;;;;;;22.77;9.40;;;19.20;90.10;;;;;;5055279;28;20017;-79
2021/08/14 08:53:49;;;;;;;23.85;8.50;;;19.20;90.00;;;;;;5053750;28;20021;-78
2021/08/14 08:56:15;;;;;;;19.08;9.02;;;19.30;90.00;;;;;;5037426;28;20393;-77
2021/08/14 08:58:40;;;;;;;18.88;8.55;;;19.40;89.80;;;;;;5055101;28;20033;-79
2021/08/14 09:01:06;;;;;;;19.23;8.82;;;19.40;89.70;;;;;;5053935;28;20477;-80
2021/08/14 09:03:33;;;;;;;22.45;9.38;;;19.50;90.00;;;;;;5055024;28;20043;-79
2021/08/14 09:05:58;;;;;;;22.05;10.65;;;19.60;89.40;;;;;;5054895;28;20381;-83
2021/08/14 09:08:24;;;;;;;20.75;11.80;;;19.60;89.10;;;;;;5053483;28;20025;-79
2021/08/14 09:11:05;;;;;;;29.38;14.02;;;19.70;89.10;;;;;;5037304;28;20032;-79
2021/08/14 09:13:30;;;;;;;28.52;14.20;;;19.70;88.70;;;;;;5053858;28;20025;-79
2021/08/14 09:15:56;;;;;;;28.75;14.98;;;19.80;88.70;;;;;;5053710;28;20052;-78
2021/08/14 09:18:22;;;;;;;24.23;13.70;;;19.80;88.50;;;;;;5054810;28;20044;-81
2021/08/14 09:20:55;;;;;;;26.45;14.80;;;19.90;88.50;;;;;;5053592;28;20036;-82
2021/08/14 09:23:22;;;;;;;31.30;14.27;;;19.90;88.20;;;;;;5036954;28;20033;-78
2021/08/14 09:25:58;;;;;;;23.73;13.45;;;19.90;87.90;;;;;;5053490;28;20299;-79
2021/08/14 09:28:35;;;;;;;27.77;13.85;;;20.00;87.70;;;;;;5053233;28;20029;-78
2021/08/14 09:31:04;;;;;;;25.38;12.43;;;20.00;87.40;;;;;;5036716;28;20029;-81
2021/08/14 09:33:35;;;;;;;25.15;12.57;;;20.00;87.20;;;;;;5054491;28;20488;-82
2021/08/14 09:36:06;;;;;;;26.65;13.35;;;20.00;87.10;;;;;;5053132;28;20021;-83
2021/08/14 09:38:49;;;;;;;28.50;11.82;;;20.10;86.90;;;;;;5054341;28;20028;-83
2021/08/14 09:41:23;;;;;;;24.20;13.20;;;20.10;87.30;;;;;;5036606;28;20151;-81
2021/08/14 09:43:49;;;;;;;;;;;20.10;86.20;;;;;;5053404;28;20031;-82
2021/08/14 09:46:15;;;;;;;26.42;12.27;;;20.20;85.90;;;;;;5052964;28;19904;-79
2021/08/14 09:48:41;;;;;;;24.85;11.80;;;20.10;85.40;;;;;;5052901;28;20427;-78
2021/08/14 09:51:27;;;;;;;26.73;12.48;;;20.20;85.00;;;;;;5052767;28;20017;-79
2021/08/14 09:53:56;;;;;;;25.55;13.13;;;20.20;84.80;;;;;;5052717;28;20021;-78
2021/08/14 09:56:24;;;;;;;30.70;13.88;;;20.20;84.60;;;;;;5053866;28;20078;-75
2021/08/14 09:58:52;;;;;;;22.80;12.75;;;20.30;84.00;;;;;;5052611;28;20393;-74
2021/08/14 10:01:18;;;;;;;21.88;10.95;;;20.30;84.00;;;;;;5053944;28;20492;-77
2021/08/14 10:03:44;;;;;;;23.70;11.15;;;20.30;83.80;;;;;;5052697;28;20061;-76
2021/08/14 10:06:11;;;;;;;18.52;9.77;;;20.30;83.10;;;;;;5052619;28;20112;-78
2021/08/14 10:08:40;;;;;;;23.17;11.02;;;20.40;82.90;;;;;;5052165;28;20471;-76
2021/08/14 10:11:10;;;;;;;20.98;10.65;;;20.40;82.80;;;;;;5052498;28;20108;-76
2021/08/14 10:13:38;;;;;;;20.10;10.35;;;20.40;82.80;;;;;;5052427;28;20021;-76
2021/08/14 10:16:04;;;;;;;17.83;9.18;;;20.50;82.70;;;;;;5053760;28;20497;-76
2021/08/14 10:18:30;;;;;;;23.88;11.43;;;20.60;82.60;;;;;;5053535;28;20059;-75
2021/08/14 10:20:56;;;;;;;23.20;10.50;;;20.60;82.40;;;;;;5059329;28;20032;-75
2021/08/14 10:23:23;;;;;;;26.55;11.88;;;20.70;82.40;;;;;;5035484;28;20106;-74
2021/08/14 10:26:04;;;;;;;25.70;11.30;;;20.80;82.10;;;;;;5052272;28;20112;-76
2021/08/14 10:28:50;;;;;;;19.33;10.95;;;20.90;81.90;;;;;;5053762;28;20036;-76
2021/08/14 10:31:34;;;;;;;20.98;10.70;;;21.00;81.70;;;;;;5052233;28;20032;-76
2021/08/14 10:34:20;;;;;;;21.95;10.60;;;21.10;81.50;;;;;;5052047;28;20045;-76
2021/08/14 10:36:47;;;;;;;19.70;9.65;;;21.20;80.90;;;;;;5052359;28;20025;-76
2021/08/14 10:39:16;;;;;;;18.60;10.35;;;21.30;80.70;;;;;;5052444;28;20476;-76
2021/08/14 10:41:43;;;;;;;22.48;10.20;;;21.30;80.60;;;;;;5052516;28;20021;-76
2021/08/14 10:44:09;;;;;;;18.50;9.98;;;21.40;80.60;;;;;;5053550;28;20055;-77
2021/08/14 10:46:38;;;;;;;18.65;10.45;;;21.40;80.60;;;;;;5053463;28;20025;-75
2021/08/14 10:49:06;;;;;;;21.50;10.52;;;21.50;80.40;;;;;;5053330;28;20024;-77
2021/08/14 10:52:07;;;;;;;21.77;10.65;;;21.50;80.20;;;;;;5053248;28;20075;-76
2021/08/14 10:54:35;;;;;;;21.15;10.55;;;21.60;80.10;;;;;;5051887;28;20017;-78
2021/08/14 10:57:03;;;;;;;21.80;10.50;;;21.60;80.00;;;;;;5053625;28;20025;-78
2021/08/14 10:59:38;;;;;;;16.92;10.50;;;21.60;80.00;;;;;;5052367;28;20036;-77
2021/08/14 11:02:07;;;;;;;20.45;11.10;;;21.70;79.90;;;;;;5052001;28;20408;-76
2021/08/14 11:05:05;;;;;;;21.05;11.15;;;21.70;79.60;;;;;;5051901;28;20033;-77
2021/08/14 11:07:31;;;;;;;22.45;11.25;;;21.70;79.30;;;;;;5045547;28;20449;-77
2021/08/14 11:09:57;;;;;;;19.92;10.48;;;21.70;79.00;;;;;;5051942;28;20444;-76
2021/08/14 11:12:50;;;;;;;19.95;9.82;;;21.60;78.90;;;;;;5052227;28;20025;-76
2021/08/14 11:15:24;;;;;;;18.85;9.88;;;21.60;78.80;;;;;;5053229;28;20033;-77
2021/08/14 11:17:52;;;;;;;22.05;10.95;;;21.60;78.80;;;;;;5051951;28;20017;-77
2021/08/14 11:20:24;;;;;;;20.20;9.63;;;21.70;79.10;;;;;;5051981;28;20082;-77
2021/08/14 11:22:50;;;;;;;19.33;9.93;;;21.90;79.10;;;;;;5053174;28;20025;-77
2021/08/14 11:25:38;;;;;;;17.90;10.15;;;22.20;78.70;;;;;;5035332;28;20400;-76
2021/08/14 11:28:09;;;;;;;16.27;9.35;;;22.30;78.00;;;;;;5051848;28;20025;-77
2021/08/14 11:30:35;;;;;;;19.77;9.55;;;22.40;77.80;;;;;;5052171;28;20033;-76
2021/08/14 11:33:04;;;;;;;17.70;8.73;;;22.50;77.60;;;;;;5051764;28;20059;-77
2021/08/14 11:35:30;;;;;;;19.77;10.25;;;22.50;77.50;;;;;;5051917;28;20392;-77
2021/08/14 11:38:01;;;;;;;20.67;8.88;;;22.50;77.00;;;;;;5055484;28;20025;-78
2021/08/14 11:40:31;;;;;;;19.67;8.20;;;22.50;77.20;;;;;;5056702;28;20025;-77
2021/08/14 11:43:08;;;;;;;15.07;7.53;;;22.50;77.10;;;;;;5055824;28;20471;-78
2021/08/14 11:45:42;;;;;;;15.20;7.57;;;22.60;76.80;;;;;;5056936;28;20128;-77
2021/08/14 11:48:11;;;;;;;18.13;8.25;;;22.70;76.30;;;;;;5055383;28;20044;-78
2021/08/14 11:50:47;;;;;;;18.33;9.05;;;22.80;76.00;;;;;;5055590;28;20017;-77
2021/08/14 11:53:24;;;;;;;13.80;7.88;;;23.00;75.80;;;;;;5057006;28;20056;-78
2021/08/14 11:56:22;;;;;;;16.65;8.32;;;23.20;75.60;;;;;;5055316;28;20111;-77
2021/08/14 11:58:51;;;;;;;14.70;7.95;;;23.60;74.40;;;;;;5065507;28;20041;-77
2021/08/14 12:01:16;;;;;;;15.63;8.40;;;24.00;74.10;;;;;;5056503;28;20032;-78
2021/08/14 12:03:42;;;;;;;15.60;8.35;;;24.30;73.50;;;;;;5057136;28;20557;-78
2021/08/14 12:06:13;;;;;;;15.00;7.80;;;24.50;72.70;;;;;;5072018;28;20039;-78
2021/08/14 12:08:44;;;;;;;16.42;8.10;;;24.60;71.90;;;;;;5074987;28;20024;-78
2021/08/14 12:11:12;;;;;;;14.43;7.57;;;24.70;71.40;;;;;;5066077;28;20017;-77
2021/08/14 12:13:39;;;;;;;14.15;6.93;;;24.70;70.90;;;;;;5054861;28;20112;-78
2021/08/14 12:16:23;;;;;;;15.35;7.43;;;24.70;70.60;;;;;;5056068;28;20036;-77
2021/08/14 12:18:50;;;;;;;13.80;7.47;;;24.70;70.20;;;;;;5060655;28;20380;-77
2021/08/14 12:21:18;;;;;;;12.90;7.68;;;24.70;70.40;;;;;;5054734;28;20208;-78
2021/08/14 12:23:45;;;;;;;14.68;6.90;;;24.90;70.00;;;;;;5054243;28;20032;-77
2021/08/14 12:26:26;;;;;;;14.68;6.80;;;25.10;69.20;;;;;;5055958;28;20496;-80
2021/08/14 12:29:02;;;;;;;12.20;5.43;;;25.40;68.70;;;;;;5055662;28;20481;-80
2021/08/14 12:31:28;;;;;;;17.10;8.10;;;25.60;68.10;;;;;;5054470;28;20056;-83
2021/08/14 12:33:59;;;;;;;13.32;6.30;;;25.90;67.60;;;;;;5037836;28;20041;-80
2021/08/14 12:36:34;;;;;;;13.50;6.70;;;26.10;66.90;;;;;;5055846;28;20465;-77